Flight Track Log - Related Links

Times and Time Zones

All times are in EDT time to prevent confusion due to time zone crossing. See the N8094A flight status page for this flight to view local times or setup timezone preferences in your user account.

Time Position Orientation Groundspeed Altitude Reporting Facility
EDT Latitude Longitude Course Direction KTS MPH feet Rate Location/Type
Sat 07:07:40 PM 43.1000 -78.9500 147° Southeast 94 108 800  Level Buffalo TRACON
Sat 07:08:04 PM 43.1000 -78.9500 147° Southeast 82 94 1,100 714 Climbing Buffalo TRACON
Sat 07:09:04 PM 43.0667 -78.9500 180° South 85 98 1,800 500 Climbing Buffalo TRACON
Sat 07:10:04 PM 43.0500 -78.9333 144° Southeast 92 106 2,100 316 Climbing Buffalo TRACON
Sat 07:10:58 PM 43.0167 -78.9333 180° South 106 122 2,400 261 Climbing Buffalo TRACON
Sat 07:11:59 PM 43.0000 -78.9000 124° Southeast 114 131 2,600 298 Climbing Buffalo TRACON
Sat 07:12:59 PM 42.9667 -78.8833 160° South 106 122 3,000 381 Climbing Buffalo TRACON
Sat 07:13:00 PM 42.9084 -78.7759 147° Southeast  Level FlightAware Approximate
Sat 07:14:05 PM 42.9500 -78.8667 144° Southeast 104 120 3,400  Level Buffalo TRACON
Sat 07:15:05 PM 42.9167 -78.8500 160° South 104 120 3,800 350 Climbing Buffalo TRACON
Sat 07:16:05 PM 42.8833 -78.8333 160° South 104 120 4,100 333 Climbing Buffalo TRACON
Sat 07:17:11 PM 42.8667 -78.8167 144° Southeast 105 121 4,500 381 Climbing Buffalo TRACON
Sat 07:18:11 PM 42.8333 -78.8000 160° South 104 120 4,900 366 Climbing Buffalo TRACON
Sat 07:19:22 PM 42.8061 -78.7733 144° Southeast 105 121 5,300 227 Climbing Cleveland Center
Sat 07:20:23 PM 42.7764 -78.7506 151° Southeast 113 130 5,400 98 Climbing Cleveland Center
Sat 07:21:24 PM 42.7458 -78.7311 155° Southeast 121 139 5,500  Climbing Cleveland Center
Sat 07:22:26 PM 42.7117 -78.7061 152° Southeast 130 150 5,400  Descending Cleveland Center
Sat 07:23:27 PM 42.6772 -78.6806 151° Southeast 132 152 5,500 49 Climbing Cleveland Center
Sat 07:24:28 PM 42.6453 -78.6519 147° Southeast 132 152 5,500 -49 Level Cleveland Center
Sat 07:25:29 PM 42.6117 -78.6269 151° Southeast 140 161 5,400 -49 Descending Cleveland Center
Sat 07:26:30 PM 42.5778 -78.5997 149° Southeast 140 161 5,400  Level Cleveland Center
Sat 07:27:32 PM 42.5444 -78.5722 149° Southeast 137 158 5,400  Level Cleveland Center
Sat 07:28:33 PM 42.5114 -78.5456 149° Southeast 138 159 5,400  Level Cleveland Center
Sat 07:29:34 PM 42.4775 -78.5178 149° Southeast 140 161 5,400 -49 Level Cleveland Center
Sat 07:30:35 PM 42.4425 -78.4917 151° Southeast 141 162 5,300 -98 Descending Cleveland Center
Sat 07:31:36 PM 42.4078 -78.4639 149° Southeast 141 162 5,200  Descending Cleveland Center
Sat 07:32:37 PM 42.3739 -78.4353 148° Southeast 141 162 5,300 49 Climbing Cleveland Center
Sat 07:33:39 PM 42.3406 -78.4072 148° Southeast 141 162 5,300  Level Cleveland Center
Sat 07:34:40 PM 42.3067 -78.3806 150° Southeast 141 162 5,300  Level Cleveland Center
Sat 07:35:41 PM 42.2733 -78.3528 148° Southeast 141 162 5,300 -49 Level Cleveland Center
Sat 07:36:42 PM 42.2328 -78.3217 150° Southeast 141 162 5,200 -49 Descending Cleveland Center
Sat 07:37:43 PM 42.1981 -78.2950 150° Southeast 141 162 5,200  Level Cleveland Center
Sat 07:38:44 PM 42.1667 -78.2700 149° Southeast 141 162 5,200 49 Level Cleveland Center
Sat 07:39:45 PM 42.1342 -78.2444 150° Southeast 139 160 5,300 49 Climbing Cleveland Center
Sat 07:40:46 PM 42.1014 -78.2172 148° Southeast 138 159 5,300  Level Cleveland Center
Sat 07:41:48 PM 42.0669 -78.1897 149° Southeast 139 160 5,300 49 Level Cleveland Center
Sat 07:42:49 PM 42.0333 -78.1631 149° Southeast 139 160 5,400 49 Climbing Cleveland Center
Sat 07:43:50 PM 41.9989 -78.1356 149° Southeast 139 160 5,400  Level Cleveland Center
Sat 07:44:51 PM 41.9650 -78.1086 149° Southeast 140 161 5,400 49 Level Cleveland Center
Sat 07:45:52 PM 41.9311 -78.0814 149° Southeast 140 161 5,500 49 Climbing Cleveland Center
Sat 07:46:53 PM 41.8897 -78.0492 150° Southeast 145 167 5,500  Level Cleveland Center
Sat 07:47:54 PM 41.8547 -78.0225 150° Southeast 145 167 5,500 -49 Level Cleveland Center
Sat 07:48:55 PM 41.8189 -77.9972 152° Southeast 145 167 5,400 -49 Descending Cleveland Center
Sat 07:49:56 PM 41.7836 -77.9714 151° Southeast 145 167 5,400  Level Cleveland Center
Sat 07:50:57 PM 41.7483 -77.9464 152° Southeast 145 167 5,400  Level Cleveland Center
Sat 07:51:58 PM 41.7119 -77.9189 151° Southeast 145 167 5,400  Level Cleveland Center
Sat 07:52:59 PM 41.6781 -77.8936 151° Southeast 145 167 5,400  Level Cleveland Center
Sat 07:54:00 PM 41.6433 -77.8656 149° Southeast 145 167 5,400  Level Cleveland Center
Sat 07:55:01 PM 41.5994 -77.8333 151° Southeast 147 169 5,400 -49 Level Cleveland Center
Sat 07:56:02 PM 41.5650 -77.8058 149° Southeast 147 169 5,300 -49 Descending Cleveland Center
Sat 07:57:03 PM 41.5303 -77.7789 150° Southeast 147 169 5,300 -49 Level Cleveland Center
Sat 07:58:04 PM 41.4942 -77.7500 149° Southeast 147 169 5,200 -49 Descending Cleveland Center
Sat 07:59:05 PM 41.4589 -77.7225 150° Southeast 147 169 5,200  Level Cleveland Center
Sat 08:00:06 PM 41.4228 -77.6944 150° Southeast 148 170 5,200 -148 Level Cleveland Center
Sat 08:01:07 PM 41.3864 -77.6697 153° Southeast 148 170 4,900 -246 Descending Cleveland Center
Sat 08:02:08 PM 41.3506 -77.6417 150° Southeast 148 170 4,700 -148 Descending Cleveland Center
Sat 08:03:09 PM 41.3169 -77.6092 144° Southeast 148 170 4,600 -148 Descending Cleveland Center
Sat 08:04:10 PM 41.2822 -77.5797 147° Southeast 148 170 4,400 -148 Descending Cleveland Center
Sat 08:05:11 PM 41.2394 -77.5483 151° Southeast 148 170 4,300  Descending Cleveland Center
Sat 08:06:12 PM 41.2064 -77.5233 150° Southeast 147 169 4,400  Climbing Cleveland Center
Sat 08:07:13 PM 41.1733 -77.4956 148° Southeast 144 166 4,300 -49 Descending Cleveland Center
Sat 08:08:14 PM 41.1394 -77.4700 150° Southeast 144 166 4,300  Level Cleveland Center

Login

Don't have an account? Register now (free) for customized features, flight alerts, and more!